logo
Search for airport 
image banner adimage banner adimage banner ad
image banner ad

ESMB - Borglanda

Located in , Sweden

ICAO - ESMB, IATA -

Data provided by Airmate  

General information

Coordinates: N56°51'47" E16°39'22"
Elevation is 118 feet MSL.
 
View others Airports in Kalmar län

Operational data

Special qualification required
Current time UTC:
Current local time:
Weather at : ESMQ - Kalmar ( 30 km )
METAR: ESMQ 231650Z 18010KT CAVOK 04/02 Q0997
TAF: TAF ESMQ 231430Z 2315/2319 21015KT 9999 SCT035
View NOTAMs / SUP AIP / TFR affecting this airport [VIEW]
Communications frequencies: [VIEW]

Runways:

RWY identifierQFULength (ft)Width (ft)SurfaceLDA (ft)
032051164GRASS
212051164GRASS

Airport contact information

Address: Sweden

Other aviation service providers

Aviation club (not for profit)

Ölands Flygklubb

Ölands Flygklubb
borglanda@borglanda.se+46702117130
+46702117130

Satellite view of ESMB